• Join FlightAware (Why Join?)
  • Login
  • US Flag 
09:50PM EDT


 

Airport Tracker/Info


-or-


 

Live Flight TrackerFlight Track Log ✈ UAL3776 ✈ 05-Apr-2013 ✈ KCLT - KIAD

Flight Track Log - Related Links

Times and Time Zones

All times are in EDT time to prevent confusion due to time zone crossing. See the UAL3776 flight status page for this flight to view local times or setup timezone preferences in your user account.

Time Position Orientation Groundspeed Altitude Reporting Facility
EDT Latitude Longitude Course Direction KTS MPH feet Rate Location/Type
07:47PM 35.1928 -80.9331 72° East 172 198 1,600  Level Atlanta Center
07:48PM 35.1708 -80.9314 176° South 167 192 2,700 1,740 Climbing FAA TRACON SMA TRACON (SMA)
07:48PM 35.1522 -80.9258 166° South 219 252 3,000 1,440 Climbing FAA TRACON SMA TRACON (SMA)
07:49PM 35.1344 -80.9014 132° Southeast 264 304 3,700 2,400 Climbing FAA TRACON SMA TRACON (SMA)
07:49PM 35.1308 -80.8742 99° East 264 304 4,600 3,300 Climbing FAA TRACON SMA TRACON (SMA)
07:49PM 35.1278 -80.8392 96° East 272 313 5,900 3,420 Climbing FAA TRACON SMA TRACON (SMA)
07:50PM 35.1079 -80.6281 29° Northeast  Level FlightAware Approximate
07:50PM 35.1256 -80.8103 95° East 276 318 6,900  Level FAA TRACON SMA TRACON (SMA)
07:50PM 35.1239 -80.7844 95° East 277 319 7,700 1,560 Climbing FAA TRACON SMA TRACON (SMA)
07:50PM 35.1219 -80.7461 94° East 270 311 8,000 1,800 Climbing FAA TRACON SMA TRACON (SMA)
07:51PM 35.2032 -80.5644 30° Northeast  Level FlightAware Approximate
07:51PM 35.1314 -80.7206 66° East 268 308 8,900  Level FAA TRACON SMA TRACON (SMA)
07:51PM 35.1439 -80.6967 57° Northeast 269 310 9,700 2,520 Climbing FAA TRACON SMA TRACON (SMA)
07:51PM 35.1600 -80.6661 57° Northeast 281 323 10,600 1,800 Climbing FAA TRACON SMA TRACON (SMA)
07:52PM 35.2970 -80.4974 30° Northeast  Level FlightAware Approximate
07:52PM 35.1747 -80.6392 56° Northeast 322 371 10,900  Level FAA TRACON SMA TRACON (SMA)
07:52PM 35.1892 -80.6111 58° Northeast 312 359 11,700 2,820 Climbing FAA TRACON SMA TRACON (SMA)
07:52PM 35.2083 -80.5758 56° Northeast 324 373 12,800 2,460 Climbing FAA TRACON SMA TRACON (SMA)
07:53PM 35.3504 -80.4019 72° East  Level FlightAware Approximate
07:53PM 35.2219 -80.5497 57° Northeast 327 376 13,400  Level FAA TRACON SMA TRACON (SMA)
07:53PM 35.2400 -80.5178 55° Northeast 340 391 14,200 1,920 Climbing FAA TRACON SMA TRACON (SMA)
07:53PM 35.2600 -80.4797 57° Northeast 351 404 14,700 1,800 Climbing FAA TRACON SMA TRACON (SMA)
07:54PM 35.2772 -80.4475 57° Northeast 366 421 15,400 2,100 Climbing FAA TRACON SMA TRACON (SMA)
07:54PM 35.2939 -80.4153 58° Northeast 364 419 16,100 2,040 Climbing FAA TRACON SMA TRACON (SMA)
07:54PM 35.3153 -80.3747 57° Northeast 368 423 16,800 2,100 Climbing FAA TRACON SMA TRACON (SMA)
07:55PM 35.3328 -80.3417 57° Northeast 371 427 17,500 1,920 Climbing FAA TRACON SMA TRACON (SMA)
07:55PM 35.3506 -80.3083 57° Northeast 376 433 18,100 2,040 Climbing FAA TRACON SMA TRACON (SMA)
07:55PM 35.3722 -80.2692 56° Northeast 380 437 18,900 2,280 Climbing FAA TRACON SMA TRACON (SMA)
07:56PM 35.3908 -80.2325 58° Northeast 382 440 19,600 1,920 Climbing FAA TRACON SMA TRACON (SMA)
07:56PM 35.4089 -80.1986 57° Northeast 386 444 20,200 1,800 Climbing FAA TRACON SMA TRACON (SMA)
07:56PM 35.4281 -80.1528 63° Northeast 394 453 20,900 1,800 Climbing FAA TRACON SMA TRACON (SMA)
07:57PM 35.4503 -80.0728 71° East 406 467 22,000 1,680 Climbing FAA TRACON SMA TRACON (SMA)
07:57PM 35.4647 -80.0225 71° East 408 470 22,600 1,620 Climbing FAA TRACON SMA TRACON (SMA)
07:58PM 35.4744 -79.9811 74° East 410 472 23,100 1,320 Climbing FAA TRACON SMA TRACON (SMA)
07:58PM 35.4886 -79.9333 70° East 410 472 23,500 1,320 Climbing FAA TRACON SMA TRACON (SMA)
07:58PM 35.4986 -79.8878 75° East 415 478 24,000 1,380 Climbing FAA TRACON SMA TRACON (SMA)
07:59PM 35.5069 -79.8564 72° East 417 480 24,400 360 Climbing FAA TRACON SMA TRACON (SMA)
07:59PM 35.5069 -79.8564 11° North 417 480 24,400 1,320 Level FAA TRACON SMA TRACON (SMA)
08:00PM 35.5756 -79.5989 72° East 422 486 26,900 1,140 Climbing Washington Center
08:01PM 35.6164 -79.4400 72° East 436 502 27,000  Climbing Washington Center
08:02PM 35.6847 -79.3231 54° Northeast 428 493 27,000  Level Washington Center
08:03PM 35.7853 -79.2458 32° Northeast 406 467 27,000  Level Washington Center
08:04PM 35.8858 -79.1658 33° Northeast 412 474 27,000  Level Washington Center
08:05PM 35.9861 -79.0883 32° Northeast 417 480 27,000  Level Washington Center
08:06PM 36.0822 -79.0078 34° Northeast 422 486 27,000  Level Washington Center
08:07PM 36.1783 -78.9319 32° Northeast 416 479 27,000  Level Washington Center
08:08PM 36.2786 -78.8539 32° Northeast 416 479 27,000  Level Washington Center
08:09PM 36.3767 -78.7728 34° Northeast 416 479 27,000  Level Washington Center
08:10PM 36.4767 -78.6969 31° Northeast 421 484 27,000 -60 Level Washington Center
08:11PM 36.5747 -78.6156 34° Northeast 421 484 26,900 -600 Descending Washington Center
08:12PM 36.6706 -78.5389 33° Northeast 421 484 25,900 -960 Descending Washington Center
08:13PM 36.7644 -78.4569 35° Northeast 415 478 25,000 -480 Descending Washington Center
08:14PM 36.8600 -78.3800 33° Northeast 409 471 25,000 -480 Level Washington Center
08:15PM 36.9558 -78.3053 32° Northeast 404 465 24,100 -960 Descending Washington Center
08:16PM 37.0514 -78.2256 34° Northeast 404 465 23,100 -1,020 Descending Washington Center
08:17PM 37.1450 -78.1453 34° Northeast 404 465 22,100 -600 Descending Washington Center
08:18PM 37.2383 -78.0675 34° Northeast 404 465 22,000 -60 Descending Washington Center
08:19PM 37.3294 -77.9947 32° Northeast 404 465 22,000  Level Washington Center
08:20PM 37.4208 -77.9167 34° Northeast 404 465 22,000  Level Washington Center
08:21PM 37.5161 -77.8383 33° Northeast 404 465 22,000 -240 Level Washington Center
08:22PM 37.6153 -77.7756 27° Northeast 404 465 21,600 -1,200 Descending Washington Center
08:23PM 37.7144 -77.7208 24° Northeast 393 452 19,600 -2,040 Descending Washington Center
08:24PM 37.8092 -77.6631 26° Northeast 381 438 17,600 -2,040 Descending Washington Center
08:25PM 37.9061 -77.6078 24° Northeast 381 438 15,600 -2,040 Descending Washington Center
08:26PM 38.0008 -77.5497 26° Northeast 381 438 13,600 -1,980 Descending Washington Center
08:27PM 38.0914 -77.4967 25° Northeast 376 433 11,700 -1,800 Descending Washington Center
08:28PM 38.1631 -77.4561 24° Northeast 341 392 10,000 -900 Descending Washington Center
08:29PM 38.2303 -77.4156 25° Northeast 297 342 10,000 -540 Level Washington Center
08:30PM 38.3011 -77.4200 357° North 245 282 9,000 -1,320 Descending Washington Center
08:31PM 38.3739 -77.4322 352° North 245 282 7,400 -1,500 Descending Washington Center
08:32PM 38.4447 -77.4419 354° North 256 295 6,100 -1,380 Descending Washington Center
08:33PM 38.5175 -77.4439 359° North 256 295 4,700 -1,080 Descending Washington Center
08:34PM 38.5864 -77.4431 North 251 289 4,000 -780 Descending Washington Center
08:35PM 38.6511 -77.4419 North 246 283 3,200 -840 Descending Washington Center
08:36PM 38.6667 -77.4333 23° Northeast 220 253 3,000 -180 Descending Potomac TRACON
08:37PM 38.7167 -77.4333 360° North 155 178 3,000  Level Potomac TRACON
08:38PM 38.7667 -77.4333 360° North 153 176 3,000 -180 Level Potomac TRACON
08:39PM 38.8000 -77.4333 360° North 156 180 2,700 -300 Descending Potomac TRACON